Time;durP1;ratioP1;P1;durP2;ratioP2;P2;SDS_P1;SDS_P2;PMS_P1;PMS_P2;Temp;Humidity;BMP_temperature;BMP_pressure;BME280_temperature;BME280_humidity;BME280_pressure;Samples;Min_cycle;Max_cycle;Signal;HPM_P1;HPM_P2
2021/03/13 00:01:49;;;;;;;10.73;3.17;;;;;;;6.20;100.00;100120.88;5201839;28;20346;-67
2021/03/13 00:04:19;;;;;;;16.90;2.78;;;;;;;6.21;100.00;100117.22;5202295;28;20117;-68
2021/03/13 00:06:50;;;;;;;19.05;3.22;;;;;;;6.20;100.00;100126.22;5202421;28;20017;-69
2021/03/13 00:09:20;;;;;;;14.45;2.50;;;;;;;6.20;100.00;100112.91;5200820;28;20030;-68
2021/03/13 00:11:51;;;;;;;9.25;3.45;;;;;;;6.14;100.00;100103.72;5202184;28;20104;-70
2021/03/13 00:14:21;;;;;;;13.02;3.10;;;;;;;6.07;100.00;100107.13;5201392;28;20017;-69
2021/03/13 00:16:52;;;;;;;18.35;2.75;;;;;;;6.05;100.00;100094.00;5202423;28;20026;-69
2021/03/13 00:19:22;;;;;;;15.23;3.28;;;;;;;6.00;100.00;100090.94;5205696;28;20021;-68
2021/03/13 00:21:53;;;;;;;18.35;2.85;;;;;;;5.97;100.00;100077.94;5201821;28;20112;-69
2021/03/13 00:24:23;;;;;;;14.73;3.20;;;;;;;5.91;100.00;100087.38;5201690;28;20025;-69
2021/03/13 00:26:55;;;;;;;15.18;3.20;;;;;;;5.88;100.00;100077.03;5201727;28;20028;-70
2021/03/13 00:29:25;;;;;;;14.32;2.90;;;;;;;5.86;100.00;100072.84;5201621;28;20088;-69
2021/03/13 00:31:56;;;;;;;13.43;2.95;;;;;;;5.85;100.00;100064.03;5201358;28;20021;-69
2021/03/13 00:34:26;;;;;;;16.98;4.00;;;;;;;5.92;100.00;100059.78;5201903;28;20026;-69
2021/03/13 00:36:56;;;;;;;15.52;3.25;;;;;;;5.84;100.00;100061.53;5201385;28;20021;-69
2021/03/13 00:39:27;;;;;;;16.75;4.30;;;;;;;5.86;100.00;100054.19;5201918;28;20079;-69
2021/03/13 00:41:57;;;;;;;16.95;3.13;;;;;;;5.83;100.00;100042.06;5201275;28;20029;-69
2021/03/13 00:44:28;;;;;;;10.63;3.42;;;;;;;5.91;100.00;100039.47;5202167;28;20493;-69
2021/03/13 00:46:58;;;;;;;22.65;3.63;;;;;;;5.99;100.00;100037.88;5196748;28;20433;-69
2021/03/13 00:49:29;;;;;;;11.57;3.28;;;;;;;5.96;100.00;100029.19;5200636;28;20029;-69
2021/03/13 00:52:00;;;;;;;20.30;3.83;;;;;;;6.01;100.00;100030.53;5199892;28;20022;-70
2021/03/13 00:54:31;;;;;;;14.02;3.92;;;;;;;6.03;100.00;100017.94;5216955;28;20036;-70
2021/03/13 00:57:01;;;;;;;13.70;3.22;;;;;;;6.01;100.00;100011.91;5201669;28;20437;-69
2021/03/13 00:59:31;;;;;;;13.48;3.72;;;;;;;6.03;100.00;100004.63;5201181;28;20083;-69
2021/03/13 01:02:02;;;;;;;14.48;2.85;;;;;;;6.04;100.00;100006.28;5200196;28;20033;-71
2021/03/13 01:04:32;;;;;;;15.57;3.47;;;;;;;6.01;100.00;99998.59;5201281;28;20071;-72
2021/03/13 01:07:03;;;;;;;18.45;3.70;;;;;;;6.06;100.00;99990.97;5201181;28;20393;-71
2021/03/13 01:09:34;;;;;;;9.68;2.90;;;;;;;6.07;100.00;99989.97;5200817;28;20056;-72
2021/03/13 01:12:06;;;;;;;19.92;3.22;;;;;;;6.12;100.00;99975.19;5201233;28;20025;-71
2021/03/13 01:14:36;;;;;;;13.70;2.97;;;;;;;6.14;100.00;99975.03;5201029;28;20474;-71
2021/03/13 01:17:07;;;;;;;16.90;3.80;;;;;;;6.15;100.00;99961.56;5201355;28;20064;-72
2021/03/13 01:19:38;;;;;;;14.35;2.63;;;;;;;6.15;100.00;99953.56;5204820;28;20036;-72
2021/03/13 01:22:08;;;;;;;11.80;2.67;;;;;;;6.16;100.00;99943.75;5200427;28;20397;-71
2021/03/13 01:24:40;;;;;;;18.05;3.17;;;;;;;6.16;100.00;99933.94;5201010;28;20557;-72
2021/03/13 01:27:11;;;;;;;16.92;2.70;;;;;;;6.16;100.00;99927.78;5200094;28;20044;-72
2021/03/13 01:29:41;;;;;;;12.20;2.40;;;;;;;6.12;100.00;99921.91;5201048;28;20021;-72
2021/03/13 01:32:12;;;;;;;17.45;3.22;;;;;;;6.16;100.00;99901.97;5200606;28;20021;-72
2021/03/13 01:34:43;;;;;;;14.38;2.75;;;;;;;6.16;100.00;99898.47;5200901;28;20025;-71
2021/03/13 01:37:15;;;;;;;12.82;3.05;;;;;;;6.17;100.00;99884.16;5200557;28;20021;-71
2021/03/13 01:39:46;;;;;;;12.82;2.55;;;;;;;6.14;100.00;99884.50;5200474;28;20030;-72
2021/03/13 01:42:16;;;;;;;14.68;2.40;;;;;;;6.19;100.00;99880.34;5200464;28;20033;-72
2021/03/13 01:44:47;;;;;;;14.75;2.92;;;;;;;6.19;100.00;99875.03;5200794;28;20025;-72
2021/03/13 01:47:21;;;;;;;9.70;2.15;;;;;;;6.18;100.00;99867.22;5195197;28;20112;-72
2021/03/13 01:49:52;;;;;;;12.43;3.00;;;;;;;6.25;100.00;99860.22;5199018;28;20394;-72
2021/03/13 01:52:23;;;;;;;14.82;2.47;;;;;;;6.18;100.00;99852.06;5200360;28;20021;-72
2021/03/13 01:54:53;;;;;;;12.25;2.50;;;;;;;6.15;100.00;99846.22;5199285;28;20030;-71
2021/03/13 01:57:26;;;;;;;12.10;2.22;;;;;;;6.13;100.00;99849.06;5200682;28;20022;-71
2021/03/13 01:59:56;;;;;;;10.85;2.00;;;;;;;6.17;100.00;99834.38;5200662;28;20026;-72
2021/03/13 02:02:27;;;;;;;7.68;2.03;;;;;;;6.14;100.00;99829.41;5200145;28;20017;-71
2021/03/13 02:04:57;;;;;;;9.90;2.17;;;;;;;6.09;100.00;99822.91;5201462;28;20041;-71
2021/03/13 02:07:37;;;;;;;11.52;2.40;;;;;;;6.08;100.00;99821.25;5201274;28;20028;-71
2021/03/13 02:10:19;;;;;;;12.77;3.47;;;;;;;6.11;100.00;99804.94;5201222;28;20090;-71
2021/03/13 02:13:12;;;;;;;9.25;1.98;;;;;;;6.08;100.00;99794.63;5200212;28;20069;-71
2021/03/13 02:15:46;;;;;;;10.52;2.38;;;;;;;6.02;100.00;99781.94;5205219;28;20032;-71
2021/03/13 02:18:28;;;;;;;10.90;2.45;;;;;;;6.02;100.00;99776.59;5205304;28;20021;-72
2021/03/13 02:21:15;;;;;;;12.75;2.45;;;;;;;5.97;100.00;99753.13;5201547;28;20116;-71
2021/03/13 02:24:19;;;;;;;13.55;2.63;;;;;;;5.96;100.00;99746.97;5220483;28;20025;-71
2021/03/13 02:27:11;;;;;;;10.23;2.13;;;;;;;5.93;100.00;99734.00;5205137;28;20063;-71
2021/03/13 02:29:47;;;;;;;13.05;2.17;;;;;;;5.95;100.00;99729.34;5204364;28;20044;-71
2021/03/13 02:32:37;;;;;;;18.95;2.80;;;;;;;5.97;100.00;99716.72;5204174;28;20044;-71
2021/03/13 02:35:14;;;;;;;7.57;2.33;;;;;;;6.02;100.00;99705.56;5205016;28;20433;-71
2021/03/13 02:37:50;;;;;;;11.75;1.92;;;;;;;6.02;100.00;99694.91;5204566;28;20101;-71
2021/03/13 02:40:25;;;;;;;16.85;2.00;;;;;;;6.07;100.00;99689.09;5203914;28;20053;-71
2021/03/13 02:43:00;;;;;;;12.63;2.22;;;;;;;6.14;100.00;99695.44;5205017;28;20067;-71
2021/03/13 02:45:34;;;;;;;18.33;3.75;;;;;;;6.15;100.00;99678.44;5204659;28;20454;-71
2021/03/13 02:48:08;;;;;;;5.70;1.38;;;;;;;6.18;100.00;99668.31;5199143;28;20475;-71
2021/03/13 02:50:42;;;;;;;15.55;2.40;;;;;;;6.14;100.00;99658.16;5203963;28;20064;-71
2021/03/13 02:53:13;;;;;;;17.85;2.42;;;;;;;6.15;100.00;99655.31;5204690;28;20013;-71
2021/03/13 02:55:50;;;;;;;14.02;3.28;;;;;;;6.20;100.00;99634.34;5219534;28;20112;-71
2021/03/13 02:58:22;;;;;;;13.07;2.60;;;;;;;6.20;100.00;99620.19;5204538;28;20025;-71
2021/03/13 03:00:58;;;;;;;17.92;3.05;;;;;;;6.19;100.00;99615.88;5202113;28;20033;-71
2021/03/13 03:03:45;;;;;;;9.82;1.98;;;;;;;6.23;100.00;99609.22;5204709;28;20112;-71
2021/03/13 03:06:18;;;;;;;11.27;2.55;;;;;;;6.22;100.00;99600.41;5219434;28;20021;-71
2021/03/13 03:08:50;;;;;;;12.05;2.22;;;;;;;6.28;100.00;99593.56;5204328;28;20425;-71
2021/03/13 03:11:25;;;;;;;;;;;;;;;6.23;100.00;99577.25;5203596;28;20072;-72
2021/03/13 03:13:57;;;;;;;10.88;2.65;;;;;;;6.24;100.00;99584.25;5204433;28;19916;-72
2021/03/13 03:16:28;;;;;;;21.63;2.38;;;;;;;6.26;100.00;99570.75;5204134;28;20478;-71
2021/03/13 03:19:00;;;;;;;16.52;2.88;;;;;;;6.34;100.00;99558.25;5203733;28;20021;-71
2021/03/13 03:21:31;;;;;;;13.23;3.55;;;;;;;6.35;100.00;99543.09;5203358;28;20509;-72
2021/03/13 03:24:03;;;;;;;18.05;3.08;;;;;;;6.38;100.00;99535.59;5203433;28;20414;-71
2021/03/13 03:26:34;;;;;;;21.83;2.90;;;;;;;6.39;100.00;99534.59;5203825;28;20075;-72
2021/03/13 03:29:08;;;;;;;17.40;2.40;;;;;;;6.42;100.00;99525.41;5203709;28;20040;-71
2021/03/13 03:31:38;;;;;;;14.02;2.13;;;;;;;6.49;100.00;99503.25;5203163;28;20021;-71
2021/03/13 03:34:09;;;;;;;8.45;2.33;;;;;;;6.50;100.00;99514.75;5202852;28;20103;-71
2021/03/13 03:36:39;;;;;;;8.38;2.80;;;;;;;6.49;100.00;99507.75;5203532;28;20101;-71
2021/03/13 03:39:10;;;;;;;19.50;3.83;;;;;;;6.49;100.00;99505.09;5200809;28;20423;-71
2021/03/13 03:41:44;;;;;;;8.93;2.40;;;;;;;6.54;100.00;99499.25;5200017;28;20033;-71
2021/03/13 03:44:20;;;;;;;12.50;2.35;;;;;;;6.49;100.00;99487.25;5203445;28;20108;-71
2021/03/13 03:46:56;;;;;;;17.05;2.65;;;;;;;6.58;100.00;99487.25;5198539;28;20105;-71
2021/03/13 03:49:27;;;;;;;15.45;2.65;;;;;;;6.55;100.00;99471.59;5202377;28;20057;-72
2021/03/13 03:51:59;;;;;;;8.85;2.92;;;;;;;6.56;100.00;99473.25;5202848;28;20026;-71
2021/03/13 03:54:35;;;;;;;15.00;2.60;;;;;;;6.57;100.00;99462.41;5203048;28;20367;-72
2021/03/13 03:57:08;;;;;;;10.43;2.10;;;;;;;6.57;100.00;99459.75;5202545;28;20033;-71
2021/03/13 03:59:42;;;;;;;13.77;3.17;;;;;;;6.66;100.00;99449.88;5202616;28;20055;-72
2021/03/13 04:02:14;;;;;;;15.30;2.60;;;;;;;6.63;100.00;99443.06;5203161;28;20100;-71
2021/03/13 04:04:45;;;;;;;11.90;2.40;;;;;;;6.69;100.00;99452.19;5201762;28;20025;-72
2021/03/13 04:07:16;;;;;;;9.50;2.22;;;;;;;6.68;100.00;99448.72;5203005;28;20033;-72
2021/03/13 04:09:48;;;;;;;11.15;1.92;;;;;;;6.68;100.00;99430.06;5202157;28;20397;-72
2021/03/13 04:12:20;;;;;;;10.38;1.95;;;;;;;6.75;100.00;99432.84;5202365;28;20032;-71
2021/03/13 04:14:51;;;;;;;7.47;1.92;;;;;;;6.77;100.00;99396.16;5203002;28;20033;-71
2021/03/13 04:17:22;;;;;;;12.00;3.25;;;;;;;6.81;100.00;99415.31;5202797;28;20018;-70
2021/03/13 04:19:53;;;;;;;8.75;1.70;;;;;;;6.83;100.00;99398.16;5202430;28;20513;-70
2021/03/13 04:22:24;;;;;;;6.18;1.50;;;;;;;6.86;100.00;99386.28;5201989;28;20036;-70
2021/03/13 04:24:57;;;;;;;8.70;1.52;;;;;;;6.79;100.00;99383.50;5202737;28;20068;-70
2021/03/13 04:27:27;;;;;;;9.73;2.58;;;;;;;6.79;100.00;99362.19;5202163;28;20041;-69
2021/03/13 04:29:58;;;;;;;8.52;1.48;;;;;;;6.78;100.00;99373.84;5201307;28;20383;-70
2021/03/13 04:32:29;;;;;;;5.47;1.45;;;;;;;6.81;100.00;99365.47;5201128;28;20032;-70
2021/03/13 04:35:00;;;;;;;10.35;2.53;;;;;;;6.80;100.00;99360.34;5202606;28;20025;-68
2021/03/13 04:37:32;;;;;;;11.63;2.28;;;;;;;6.87;100.00;99348.78;5201774;28;20282;-68
2021/03/13 04:40:03;;;;;;;12.85;3.22;;;;;;;6.87;100.00;99342.63;5201849;28;20036;-68
2021/03/13 04:42:33;;;;;;;11.32;2.35;;;;;;;6.83;100.00;99330.66;5202396;28;20025;-68
2021/03/13 04:45:08;;;;;;;12.73;2.25;;;;;;;6.89;100.00;99338.78;5201678;28;20109;-67
2021/03/13 04:47:45;;;;;;;21.95;2.90;;;;;;;6.95;100.00;99311.38;5196937;28;20048;-68
2021/03/13 04:50:18;;;;;;;15.70;2.42;;;;;;;6.96;100.00;99307.72;5201492;28;20430;-68
2021/03/13 04:52:50;;;;;;;16.77;2.35;;;;;;;6.99;100.00;99311.88;5202464;28;20022;-67
2021/03/13 04:55:20;;;;;;;8.07;1.88;;;;;;;7.06;100.00;99306.63;5201191;28;20028;-68
2021/03/13 04:57:51;;;;;;;8.95;1.80;;;;;;;7.05;100.00;99300.47;5201947;28;20425;-67
2021/03/13 05:00:23;;;;;;;9.85;2.22;;;;;;;7.10;100.00;99291.94;5201736;28;20485;-67
2021/03/13 05:02:53;;;;;;;12.30;2.17;;;;;;;7.07;100.00;99289.63;5202158;28;20044;-68
2021/03/13 05:05:24;;;;;;;8.20;1.70;;;;;;;7.16;100.00;99273.34;5202129;28;20021;-67
2021/03/13 05:07:54;;;;;;;9.55;1.67;;;;;;;7.18;100.00;99289.19;5201277;28;20030;-68
2021/03/13 05:10:25;;;;;;;10.60;2.20;;;;;;;7.19;100.00;99270.34;5201286;28;20029;-68
2021/03/13 05:12:55;;;;;;;12.48;2.00;;;;;;;7.24;100.00;99267.94;5201979;28;20043;-68
2021/03/13 05:15:26;;;;;;;10.52;1.80;;;;;;;7.30;100.00;99269.03;5202163;28;20402;-67
2021/03/13 05:17:56;;;;;;;16.83;1.90;;;;;;;7.31;100.00;99267.22;5201911;28;20045;-67
2021/03/13 05:20:27;;;;;;;9.52;2.22;;;;;;;7.25;100.00;99258.94;5200694;28;20025;-67
2021/03/13 05:22:58;;;;;;;11.60;2.15;;;;;;;7.23;100.00;99276.13;5202186;28;20116;-67
2021/03/13 05:25:28;;;;;;;12.27;1.60;;;;;;;7.26;100.00;99259.75;5184202;28;20394;-67
2021/03/13 05:27:59;;;;;;;13.85;1.67;;;;;;;7.27;100.00;99259.56;5201928;28;20246;-67
2021/03/13 05:30:29;;;;;;;10.52;1.38;;;;;;;7.31;100.00;99262.69;5200973;28;20057;-67
2021/03/13 05:33:00;;;;;;;12.98;1.98;;;;;;;7.30;100.00;99261.03;5201754;28;20470;-67
2021/03/13 05:35:30;;;;;;;5.65;1.98;;;;;;;7.32;100.00;99285.69;5201343;28;20544;-67
2021/03/13 05:38:01;;;;;;;11.75;1.80;;;;;;;7.23;100.00;99300.16;5201483;28;20025;-67
2021/03/13 05:40:32;;;;;;;13.55;3.10;;;;;;;7.21;100.00;99321.66;5200600;28;20501;-67
2021/03/13 05:43:03;;;;;;;13.48;1.83;;;;;;;7.10;100.00;99372.75;5201430;28;20385;-69
2021/03/13 05:45:33;;;;;;;5.85;1.42;;;;;;;6.90;100.00;99374.25;5200573;28;20025;-69
2021/03/13 05:48:07;;;;;;;6.65;1.13;;;;;;;6.75;100.00;99369.69;5191914;28;20010;-69
2021/03/13 05:50:38;;;;;;;7.63;1.13;;;;;;;6.62;100.00;99369.44;5205415;28;20057;-69
2021/03/13 05:53:11;;;;;;;3.58;0.80;;;;;;;6.50;100.00;99392.19;5205560;28;20071;-68
2021/03/13 05:55:42;;;;;;;0.93;0.40;;;;;;;6.19;100.00;99297.13;5205335;28;20029;-68
2021/03/13 05:58:13;;;;;;;2.33;1.08;;;;;;;5.95;100.00;99282.13;5205508;28;20057;-69
2021/03/13 06:00:44;;;;;;;4.40;0.30;;;;;;;5.83;100.00;99288.81;5204913;28;20052;-68
2021/03/13 06:03:15;;;;;;;1.25;0.47;;;;;;;5.70;100.00;99294.69;5205212;28;20049;-69
2021/03/13 06:05:46;;;;;;;2.33;0.52;;;;;;;5.77;100.00;99315.28;5205584;28;20493;-68
2021/03/13 06:08:17;;;;;;;4.68;0.45;;;;;;;5.78;100.00;99341.75;5204458;28;20117;-69
2021/03/13 06:10:49;;;;;;;4.53;0.50;;;;;;;5.89;100.00;99328.03;5204320;28;20028;-68
2021/03/13 06:13:19;;;;;;;5.00;0.80;;;;;;;5.92;100.00;99333.06;5178994;28;20038;-69
2021/03/13 06:15:54;;;;;;;2.35;0.63;;;;;;;5.99;100.00;99324.38;5184672;28;20426;-69
2021/03/13 06:18:24;;;;;;;3.55;0.70;;;;;;;6.05;100.00;99337.81;5203944;28;20072;-69
2021/03/13 06:20:54;;;;;;;2.22;0.77;;;;;;;6.10;100.00;99330.13;5202164;28;20033;-69
2021/03/13 06:23:32;;;;;;;4.28;0.88;;;;;;;6.09;100.00;99325.81;5202694;28;20017;-69
2021/03/13 06:26:02;;;;;;;2.88;0.82;;;;;;;6.15;100.00;99319.78;5202646;28;20052;-69
2021/03/13 06:28:33;;;;;;;2.72;0.50;;;;;;;6.11;100.00;99320.31;5203008;28;20025;-68
2021/03/13 06:31:06;;;;;;;1.77;0.50;;;;;;;6.14;100.00;99325.31;5201815;28;20055;-69
2021/03/13 06:33:37;;;;;;;2.60;0.63;;;;;;;6.12;100.00;99319.31;5202013;28;20067;-69
2021/03/13 06:36:09;;;;;;;2.97;0.45;;;;;;;6.08;100.00;99329.50;5203155;28;20456;-69
2021/03/13 06:38:39;;;;;;;5.03;0.80;;;;;;;6.07;100.00;99329.66;5202512;28;20025;-69
2021/03/13 06:41:13;;;;;;;3.33;0.57;;;;;;;6.03;100.00;99325.69;5202154;28;20474;-69
2021/03/13 06:43:45;;;;;;;3.60;0.57;;;;;;;6.10;100.00;99331.97;5201443;28;20025;-69
2021/03/13 06:46:18;;;;;;;5.68;0.70;;;;;;;6.07;100.00;99340.28;5202444;28;20108;-69
2021/03/13 06:48:51;;;;;;;5.07;0.60;;;;;;;6.05;100.00;99347.63;5195883;28;20046;-68
2021/03/13 06:51:21;;;;;;;8.90;0.88;;;;;;;6.02;100.00;99334.66;5201854;28;20087;-69
2021/03/13 06:54:06;;;;;;;2.58;0.63;;;;;;;6.03;100.00;99339.00;5208599;28;20037;-69
2021/03/13 06:56:41;;;;;;;7.03;0.80;;;;;;;6.04;100.00;99353.97;5203128;28;20025;-69
2021/03/13 06:59:32;;;;;;;4.45;0.70;;;;;;;6.04;100.00;99341.50;5202006;28;20029;-69
2021/03/13 07:02:05;;;;;;;3.60;0.70;;;;;;;6.08;100.00;99349.97;5202109;28;20031;-69
2021/03/13 07:04:50;;;;;;;7.32;0.90;;;;;;;6.11;100.00;99350.44;5202208;28;20087;-69
2021/03/13 07:07:29;;;;;;;2.95;1.02;;;;;;;6.13;100.00;99358.25;5202778;28;20029;-69
2021/03/13 07:10:02;;;;;;;4.28;0.88;;;;;;;6.16;100.00;99355.22;5202241;28;20037;-69
2021/03/13 07:12:40;;;;;;;6.07;0.77;;;;;;;6.17;100.00;99349.72;5201929;28;20470;-68
2021/03/13 07:15:12;;;;;;;4.47;1.30;;;;;;;6.22;100.00;99349.19;5201470;28;20394;-69
2021/03/13 07:17:51;;;;;;;10.43;1.23;;;;;;;6.26;100.00;99358.50;5202187;28;20056;-69
2021/03/13 07:20:25;;;;;;;8.50;2.90;;;;;;;6.28;100.00;99361.84;5200346;28;20230;-69
2021/03/13 07:22:57;;;;;;;8.43;2.63;;;;;;;6.33;100.00;99371.97;5201388;28;20036;-69
2021/03/13 07:25:28;;;;;;;8.50;1.30;;;;;;;6.35;100.00;99376.09;5199767;28;20021;-69
2021/03/13 07:28:01;;;;;;;7.05;1.38;;;;;;;6.34;100.00;99366.47;5201802;28;20030;-69
2021/03/13 07:30:34;;;;;;;9.82;1.88;;;;;;;6.39;100.00;99377.44;5200376;28;20112;-69
2021/03/13 07:33:10;;;;;;;7.22;1.42;;;;;;;6.44;100.00;99372.41;5201584;28;20544;-69
2021/03/13 07:35:46;;;;;;;7.50;1.20;;;;;;;6.37;100.00;99371.41;5201164;28;20393;-69
2021/03/13 07:38:21;;;;;;;6.75;1.20;;;;;;;6.39;100.00;99369.44;5201711;28;20053;-69
2021/03/13 07:40:53;;;;;;;13.68;1.52;;;;;;;6.46;100.00;99365.03;5201844;28;20025;-69
2021/03/13 07:43:26;;;;;;;10.27;2.08;;;;;;;6.53;100.00;99351.88;5201150;28;20444;-69
2021/03/13 07:45:58;;;;;;;9.30;1.67;;;;;;;6.62;100.00;99363.28;5200611;28;20035;-70
2021/03/13 07:48:29;;;;;;;10.82;1.35;;;;;;;6.63;100.00;99368.47;5194972;28;20017;-69
2021/03/13 07:51:00;;;;;;;9.77;1.42;;;;;;;6.68;100.00;99371.41;5201061;28;20045;-69
2021/03/13 07:53:34;;;;;;;6.57;1.13;;;;;;;6.72;100.00;99375.38;5201494;28;20025;-70
2021/03/13 07:56:08;;;;;;;4.05;0.95;;;;;;;6.84;100.00;99377.66;5201350;28;20033;-69
2021/03/13 07:58:43;;;;;;;7.75;1.10;;;;;;;6.91;100.00;99387.41;5200720;28;20097;-69
2021/03/13 08:01:14;;;;;;;4.95;1.40;;;;;;;6.98;100.00;99384.88;5194953;28;20030;-69
2021/03/13 08:03:48;;;;;;;9.48;1.60;;;;;;;6.97;100.00;99381.34;5200743;28;20099;-69
2021/03/13 08:06:18;;;;;;;5.95;1.48;;;;;;;7.02;100.00;99375.47;5200922;28;20036;-69
2021/03/13 08:08:52;;;;;;;10.85;1.35;;;;;;;7.01;100.00;99374.66;5201001;28;20033;-69
2021/03/13 08:11:27;;;;;;;7.18;1.60;;;;;;;6.97;100.00;99380.53;5198947;28;20497;-70
2021/03/13 08:13:59;;;;;;;12.15;2.25;;;;;;;7.00;100.00;99394.34;5201073;28;20164;-69
2021/03/13 08:16:33;;;;;;;8.60;1.73;;;;;;;7.04;100.00;99396.66;5200916;28;20082;-69
2021/03/13 08:19:26;;;;;;;8.93;1.60;;;;;;;7.05;100.00;99400.97;5200905;28;20112;-69
2021/03/13 08:22:17;;;;;;;14.50;1.67;;;;;;;6.91;100.00;99394.56;5200427;28;20372;-69
2021/03/13 08:24:50;;;;;;;15.23;1.63;;;;;;;7.08;100.00;99385.47;5189494;28;20265;-69
2021/03/13 08:27:40;;;;;;;7.60;1.63;;;;;;;7.06;100.00;99379.44;5200090;28;20079;-69
2021/03/13 08:30:24;;;;;;;16.45;1.98;;;;;;;7.22;100.00;99375.81;5200374;28;20494;-69
2021/03/13 08:32:57;;;;;;;9.90;1.52;;;;;;;7.36;100.00;99371.53;5188408;28;20032;-69
2021/03/13 08:35:31;;;;;;;8.68;1.88;;;;;;;7.55;100.00;99380.84;5200179;28;20402;-68
2021/03/13 08:38:02;;;;;;;12.02;1.77;;;;;;;7.60;100.00;99384.63;5200589;28;20021;-69
2021/03/13 08:40:34;;;;;;;10.70;1.60;;;;;;;7.76;100.00;99356.94;5207507;28;20194;-69
2021/03/13 08:43:35;;;;;;;10.40;1.50;;;;;;;7.95;100.00;99361.72;5218194;28;20024;-69
2021/03/13 08:46:44;;;;;;;17.48;2.00;;;;;;;8.14;100.00;99356.81;5210412;28;20401;-69
2021/03/13 08:49:22;;;;;;;12.73;1.95;;;;;;;8.00;100.00;99378.00;5201148;28;20033;-69
2021/03/13 08:52:03;;;;;;;14.63;2.47;;;;;;;7.87;100.00;99368.97;5192905;28;20033;-69
2021/03/13 08:54:37;;;;;;;20.63;3.05;;;;;;;7.73;100.00;99379.50;5203409;28;20032;-69
2021/03/13 08:57:11;;;;;;;15.80;2.80;;;;;;;7.77;100.00;99390.63;5190987;28;20041;-69
2021/03/13 08:59:44;;;;;;;25.48;2.70;;;;;;;7.71;100.00;99380.69;5202126;28;20037;-69
2021/03/13 09:02:17;;;;;;;21.38;3.28;;;;;;;7.67;100.00;99403.41;5206627;28;20120;-69
2021/03/13 09:04:51;;;;;;;25.35;4.53;;;;;;;7.82;100.00;99372.19;5193068;28;20588;-68
2021/03/13 09:07:23;;;;;;;19.77;3.72;;;;;;;8.07;100.00;99398.63;5202508;28;20117;-68
2021/03/13 09:09:56;;;;;;;13.35;2.17;;;;;;;8.38;100.00;99385.91;5209705;28;20129;-68
2021/03/13 09:12:30;;;;;;;22.83;3.70;;;;;;;8.64;100.00;99363.19;5193172;28;20037;-68
2021/03/13 09:15:04;;;;;;;16.65;2.25;;;;;;;8.50;100.00;99397.78;5195513;28;20378;-68
2021/03/13 09:17:35;;;;;;;21.52;2.75;;;;;;;8.40;100.00;99369.69;5206532;28;20025;-68
2021/03/13 09:20:09;;;;;;;18.42;2.78;;;;;;;8.29;100.00;99401.19;5204108;28;20404;-69
2021/03/13 09:22:43;;;;;;;21.70;2.92;;;;;;;8.28;100.00;99412.03;5193512;28;20064;-69
2021/03/13 09:25:17;;;;;;;13.90;2.33;;;;;;;8.23;100.00;99399.28;5201342;28;20029;-68
2021/03/13 09:27:51;;;;;;;17.48;2.20;;;;;;;8.13;100.00;99398.69;5213848;28;20021;-68
2021/03/13 09:30:27;;;;;;;14.05;2.25;;;;;;;8.37;100.00;99399.44;5213175;28;20025;-69
2021/03/13 09:32:57;;;;;;;8.32;1.90;;;;;;;8.37;100.00;99418.97;5189459;28;20048;-69
2021/03/13 09:35:28;;;;;;;11.88;2.05;;;;;;;8.32;100.00;99400.81;5194214;28;20052;-70
2021/03/13 09:38:09;;;;;;;16.10;3.30;;;;;;;8.16;100.00;99392.19;5208693;28;20033;-69
2021/03/13 09:40:39;;;;;;;15.77;2.60;;;;;;;8.22;100.00;99397.59;5200566;28;20025;-68
2021/03/13 09:43:10;;;;;;;19.58;3.08;;;;;;;8.26;100.00;99403.41;5191333;28;20083;-69
2021/03/13 09:45:40;;;;;;;24.55;3.33;;;;;;;8.31;100.00;99407.16;5197640;28;20100;-69
2021/03/13 09:48:11;;;;;;;20.65;2.53;;;;;;;8.37;100.00;99412.81;5201704;28;20338;-69
2021/03/13 09:50:43;;;;;;;24.65;4.03;;;;;;;8.74;100.00;99409.97;5203011;28;20409;-69
2021/03/13 09:53:14;;;;;;;21.67;2.92;;;;;;;9.03;100.00;99413.53;5197895;28;20033;-68
2021/03/13 09:55:45;;;;;;;19.40;2.88;;;;;;;8.82;100.00;99407.16;5215785;28;20029;-68
2021/03/13 09:58:17;;;;;;;18.33;3.45;;;;;;;8.82;100.00;99403.66;5213273;28;20036;-68
2021/03/13 10:00:48;;;;;;;17.80;3.28;;;;;;;8.65;100.00;99427.16;5197585;28;20036;-69
2021/03/13 10:03:20;;;;;;;19.25;2.72;;;;;;;8.54;100.00;99433.81;5197942;28;20494;-69
2021/03/13 10:05:54;;;;;;;26.60;3.50;;;;;;;8.50;100.00;99429.03;5197945;28;20053;-68
2021/03/13 10:08:36;;;;;;;23.58;3.30;;;;;;;8.77;100.00;99417.59;5198699;28;20072;-69
2021/03/13 10:11:06;;;;;;;18.00;2.28;;;;;;;8.93;100.00;99427.22;5196910;28;20021;-69
2021/03/13 10:13:37;;;;;;;18.80;2.70;;;;;;;8.91;100.00;99437.28;5200510;28;20038;-69
2021/03/13 10:16:11;;;;;;;13.38;2.58;;;;;;;8.89;100.00;99435.84;5196719;28;20022;-69
2021/03/13 10:18:44;;;;;;;17.75;2.70;;;;;;;8.88;100.00;99418.13;5208110;28;20056;-69
2021/03/13 10:21:14;;;;;;;12.30;3.40;;;;;;;8.86;100.00;99428.19;5212364;28;20664;-69
2021/03/13 10:23:45;;;;;;;11.90;3.40;;;;;;;8.95;100.00;99433.22;5203368;28;20112;-69
2021/03/13 10:26:16;;;;;;;13.65;2.70;;;;;;;8.96;100.00;99384.06;5201297;28;20035;-69
2021/03/13 10:28:49;;;;;;;24.85;3.50;;;;;;;8.86;100.00;99417.50;5204834;28;20465;-68
2021/03/13 10:31:26;;;;;;;17.02;2.67;;;;;;;8.93;100.00;99416.53;5199072;28;20470;-68
2021/03/13 10:33:56;;;;;;;23.73;3.05;;;;;;;9.14;100.00;99444.34;5199609;28;20489;-69
2021/03/13 10:36:43;;;;;;;18.98;2.95;;;;;;;8.97;100.00;99431.19;5202072;28;20063;-69
2021/03/13 10:39:14;;;;;;;17.77;3.22;;;;;;;8.77;100.00;99427.47;5214346;28;20080;-69
2021/03/13 10:41:54;;;;;;;22.50;4.25;;;;;;;8.81;100.00;99429.56;5201474;28;20441;-68
2021/03/13 10:44:25;;;;;;;28.25;3.15;;;;;;;8.82;100.00;99407.16;5203105;28;20496;-69
2021/03/13 10:46:55;;;;;;;11.98;2.38;;;;;;;9.10;100.00;99419.78;5202326;28;20018;-69
2021/03/13 10:49:27;;;;;;;22.17;2.97;;;;;;;9.53;100.00;99393.78;5210273;28;20564;-69
2021/03/13 10:51:58;;;;;;;15.32;3.38;;;;;;;9.63;100.00;99398.81;5212233;28;20291;-68
2021/03/13 10:54:29;;;;;;;15.65;2.33;;;;;;;9.47;100.00;99394.56;5223284;28;20025;-69
2021/03/13 10:57:06;;;;;;;23.00;3.20;;;;;;;9.15;100.00;99400.50;5215323;28;20060;-69
2021/03/13 10:59:37;;;;;;;28.52;3.08;;;;;;;8.96;100.00;99389.41;5201183;28;20021;-69
2021/03/13 11:02:08;;;;;;;18.77;2.95;;;;;;;8.92;100.00;99430.94;5204943;28;20269;-69
2021/03/13 11:04:40;;;;;;;17.73;2.92;;;;;;;8.73;100.00;99429.69;5200885;28;20080;-69
2021/03/13 11:07:11;;;;;;;23.60;3.03;;;;;;;7.95;100.00;99444.50;5202153;28;20107;-68
2021/03/13 11:09:46;;;;;;;19.98;2.60;;;;;;;7.53;100.00;99437.91;5204774;28;20174;-68
2021/03/13 11:12:16;;;;;;;;;;;;;;;7.77;100.00;99433.34;5202301;28;20044;-68
2021/03/13 11:14:47;;;;;;;16.40;2.65;;;;;;;8.11;100.00;99421.28;5201047;28;20320;-68
2021/03/13 11:17:18;;;;;;;25.17;3.28;;;;;;;8.47;100.00;99432.88;5212505;28;20512;-68
2021/03/13 11:19:48;;;;;;;17.58;2.53;;;;;;;8.78;100.00;99439.81;5210658;28;20036;-69
2021/03/13 11:22:20;;;;;;;13.77;2.20;;;;;;;8.91;100.00;99421.25;5206857;28;20449;-68
2021/03/13 11:24:50;;;;;;;21.20;2.47;;;;;;;8.86;100.00;99444.25;5211827;28;20030;-68
2021/03/13 11:27:21;;;;;;;15.65;2.70;;;;;;;8.52;100.00;99440.34;5201073;28;20524;-68
2021/03/13 11:29:51;;;;;;;17.83;2.58;;;;;;;8.34;100.00;99443.41;5216505;28;20469;-67
2021/03/13 11:32:22;;;;;;;14.48;2.08;;;;;;;8.18;100.00;99448.91;5215473;28;20105;-68
2021/03/13 11:34:53;;;;;;;15.75;2.22;;;;;;;8.14;100.00;99440.47;5213036;28;20073;-68
2021/03/13 11:37:23;;;;;;;18.60;3.35;;;;;;;8.15;100.00;99474.16;5202828;28;20021;-68
2021/03/13 11:39:54;;;;;;;18.65;2.60;;;;;;;8.32;100.00;99467.59;5198829;28;20409;-68
2021/03/13 11:42:28;;;;;;;14.88;2.47;;;;;;;8.27;100.00;99480.69;5212268;28;20302;-67
2021/03/13 11:44:59;;;;;;;17.70;2.95;;;;;;;8.14;100.00;99477.84;5206957;28;20028;-68
2021/03/13 11:47:30;;;;;;;16.67;2.40;;;;;;;7.95;100.00;99457.84;5203142;28;20104;-68
2021/03/13 11:50:01;;;;;;;16.98;3.20;;;;;;;8.01;100.00;99472.31;5205119;28;20556;-67
2021/03/13 11:52:31;;;;;;;16.55;3.08;;;;;;;8.08;100.00;99465.22;5204048;28;20037;-67
2021/03/13 11:55:04;;;;;;;20.83;3.25;;;;;;;8.24;100.00;99456.22;5200265;28;20105;-68